createdAt,value
2023-05-15T00:01:45.606Z,12.89
2023-05-15T00:04:13.243Z,12.86
2023-05-15T00:06:40.937Z,12.87
2023-05-15T00:09:09.514Z,12.85
2023-05-15T00:11:38.540Z,12.82
2023-05-15T00:14:06.179Z,12.80
2023-05-15T00:16:33.973Z,12.77
2023-05-15T00:19:01.780Z,12.71
2023-05-15T00:21:29.823Z,12.69
2023-05-15T00:23:58.335Z,12.70
2023-05-15T00:26:26.174Z,12.67
2023-05-15T00:28:55.276Z,12.67
2023-05-15T00:31:22.995Z,12.65
2023-05-15T00:33:51.036Z,12.63
2023-05-15T00:36:21.552Z,12.60
2023-05-15T00:38:49.207Z,12.59
2023-05-15T00:41:17.180Z,12.54
2023-05-15T00:43:46.637Z,12.51
2023-05-15T00:46:16.336Z,12.49
2023-05-15T00:48:45.231Z,12.47
2023-05-15T00:51:13.102Z,12.49
2023-05-15T00:53:41.761Z,12.46
2023-05-15T00:56:10.242Z,12.40
2023-05-15T00:58:38.845Z,12.37
2023-05-15T01:01:08.484Z,12.31
2023-05-15T01:03:37.866Z,12.29
2023-05-15T01:06:06.404Z,12.23
2023-05-15T01:08:41.039Z,12.17
2023-05-15T01:11:09.724Z,12.11
2023-05-15T01:13:37.370Z,12.06
2023-05-15T01:16:06.107Z,12.00
2023-05-15T01:18:33.969Z,11.98
2023-05-15T01:21:28.834Z,11.93
2023-05-15T01:24:12.836Z,11.90
2023-05-15T01:27:04.031Z,11.84
2023-05-15T01:29:37.461Z,11.86
2023-05-15T01:32:10.901Z,11.85
2023-05-15T01:34:46.896Z,11.87
2023-05-15T01:37:17.403Z,11.82
2023-05-15T01:39:50.756Z,11.84
2023-05-15T01:42:20.864Z,11.82
2023-05-15T01:44:54.430Z,11.79
2023-05-15T01:47:28.301Z,11.77
2023-05-15T01:49:57.904Z,11.75
2023-05-15T01:52:30.067Z,11.72
2023-05-15T01:54:59.168Z,11.68
2023-05-15T01:57:29.540Z,11.65
2023-05-15T01:59:59.263Z,11.60
2023-05-15T02:02:28.548Z,11.58
2023-05-15T02:04:57.584Z,11.57
2023-05-15T02:07:25.910Z,11.57
2023-05-15T02:09:55.073Z,11.56
2023-05-15T02:12:23.863Z,11.52
2023-05-15T02:14:54.013Z,11.47
2023-05-15T02:17:22.785Z,11.48
2023-05-15T03:05:10.946Z,10.84
2023-05-15T03:07:38.494Z,10.84
2023-05-15T03:10:07.224Z,10.84
2023-05-15T03:12:35.067Z,10.83
2023-05-15T03:15:02.774Z,10.84
2023-05-15T03:17:30.507Z,10.85
2023-05-15T03:19:58.414Z,10.87
2023-05-15T03:22:27.364Z,10.91
2023-05-15T03:24:54.929Z,10.92
2023-05-15T03:27:22.515Z,10.93
2023-05-15T03:29:50.974Z,10.94
2023-05-15T03:32:18.679Z,11.00
2023-05-15T03:34:46.309Z,11.05
2023-05-15T03:37:13.893Z,11.06
2023-05-15T03:39:42.915Z,11.10
2023-05-15T03:42:10.517Z,11.12
2023-05-15T03:44:38.350Z,11.17
2023-05-15T03:47:06.296Z,11.21
2023-05-15T03:49:33.951Z,11.30
2023-05-15T03:52:01.788Z,11.39
2023-05-15T03:54:29.450Z,11.49
2023-05-15T03:56:58.749Z,11.54
2023-05-15T03:59:26.357Z,11.66
2023-05-15T04:02:04.306Z,11.75
2023-05-15T04:04:32.807Z,11.81
2023-05-15T04:07:00.635Z,11.89
2023-05-15T04:09:28.425Z,11.97
2023-05-15T04:11:56.083Z,12.07
2023-05-15T04:14:25.018Z,12.13
2023-05-15T04:16:52.701Z,12.23
2023-05-15T04:19:20.834Z,12.38
2023-05-15T04:21:48.894Z,12.51
2023-05-15T04:24:16.521Z,12.66
2023-05-15T04:26:44.254Z,12.93
2023-05-15T04:29:11.931Z,13.41
2023-05-15T04:31:40.977Z,14.26
2023-05-15T04:34:08.700Z,15.17
2023-05-15T04:36:36.523Z,15.92
2023-05-15T04:39:04.666Z,16.53
2023-05-15T04:41:33.266Z,17.11
2023-05-15T04:44:00.870Z,17.86
2023-05-15T04:46:29.348Z,18.52
2023-05-15T04:48:58.575Z,19.12
2023-05-15T04:51:26.201Z,19.44
2023-05-15T04:53:53.909Z,19.95
2023-05-15T04:56:21.702Z,20.26
2023-05-15T04:58:49.380Z,20.70
2023-05-15T05:01:16.983Z,20.86
2023-05-15T05:03:44.682Z,20.94
2023-05-15T05:06:13.607Z,21.51
2023-05-15T05:08:41.197Z,21.85
2023-05-15T05:11:08.845Z,21.81
2023-05-15T05:13:36.552Z,21.92
2023-05-15T05:16:04.490Z,22.07
2023-05-15T05:18:32.161Z,22.80
2023-05-15T05:21:02.804Z,23.04
2023-05-15T05:23:32.167Z,22.70
2023-05-15T05:26:01.832Z,23.18
2023-05-15T05:28:30.253Z,23.80
2023-05-15T05:30:58.006Z,24.30
2023-05-15T05:33:25.609Z,24.60
2023-05-15T05:35:53.581Z,25.00
2023-05-15T05:39:17.206Z,25.50
2023-05-15T05:41:44.993Z,25.42
2023-05-15T05:44:13.892Z,25.67
2023-05-15T05:46:41.749Z,25.67
2023-05-15T05:49:09.480Z,25.83
2023-05-15T05:51:38.460Z,25.68
2023-05-15T05:54:06.195Z,25.72
2023-05-15T05:56:35.216Z,25.97
2023-05-15T05:59:03.038Z,26.36
2023-05-15T06:01:31.113Z,26.56
2023-05-15T06:03:58.880Z,26.52
2023-05-15T06:06:26.545Z,26.56
2023-05-15T06:08:56.395Z,26.28
2023-05-15T06:11:25.581Z,26.50
2023-05-15T06:13:54.888Z,26.79
2023-05-15T06:16:22.869Z,26.29
2023-05-15T06:18:51.107Z,26.61
2023-05-15T06:21:18.788Z,26.95
2023-05-15T06:23:46.379Z,27.03
2023-05-15T06:26:14.211Z,27.38
2023-05-15T06:28:41.927Z,27.67
2023-05-15T06:31:11.280Z,28.22
2023-05-15T06:33:38.889Z,28.00
2023-05-15T06:36:07.042Z,27.82
2023-05-15T06:38:34.620Z,27.89
2023-05-15T06:41:02.358Z,27.66
2023-05-15T06:43:30.154Z,27.51
2023-05-15T06:45:57.804Z,27.44
2023-05-15T06:48:26.794Z,27.40
2023-05-15T06:50:54.413Z,27.67
2023-05-15T06:53:22.029Z,27.69
2023-05-15T06:55:49.682Z,27.73
2023-05-15T06:58:17.975Z,27.92
2023-05-15T07:00:46.344Z,28.26
2023-05-15T07:03:14.405Z,28.67
2023-05-15T07:05:43.446Z,28.33
2023-05-15T07:08:11.050Z,28.15
2023-05-15T07:10:38.941Z,27.97
2023-05-15T07:13:06.541Z,28.63
2023-05-15T07:15:34.133Z,28.92
2023-05-15T07:18:02.060Z,28.75
2023-05-15T07:20:32.381Z,28.67
2023-05-15T07:23:04.545Z,28.66
2023-05-15T07:25:32.181Z,28.60
2023-05-15T07:27:59.820Z,28.34
2023-05-15T07:30:27.679Z,28.26
2023-05-15T07:32:55.924Z,28.41
2023-05-15T07:35:23.879Z,28.53
2023-05-15T07:37:51.754Z,28.32
2023-05-15T07:40:21.016Z,27.67
2023-05-15T07:42:48.633Z,26.68
2023-05-15T07:45:16.357Z,26.53
2023-05-15T07:47:47.245Z,26.41
2023-05-15T07:50:15.745Z,26.15
2023-05-15T07:52:43.822Z,25.36
2023-05-15T07:55:11.769Z,25.70
2023-05-15T07:57:40.953Z,25.98
2023-05-15T08:00:13.576Z,26.48
2023-05-15T08:02:42.440Z,26.30
2023-05-15T08:05:10.667Z,25.67
2023-05-15T08:07:38.628Z,25.56
2023-05-15T08:10:07.419Z,25.73
2023-05-15T08:12:35.267Z,25.66
2023-05-15T08:15:04.758Z,25.61
2023-05-15T08:17:32.940Z,25.73
2023-05-15T08:20:00.635Z,25.51
2023-05-15T08:22:30.240Z,25.11
2023-05-15T08:24:58.063Z,25.12
2023-05-15T08:27:25.764Z,24.94
2023-05-15T08:29:54.693Z,25.03
2023-05-15T08:32:23.999Z,24.98
2023-05-15T08:34:51.696Z,25.02
2023-05-15T08:37:19.478Z,25.25
2023-05-15T08:39:47.159Z,25.00
2023-05-15T08:42:20.967Z,25.08
2023-05-15T08:44:48.794Z,25.28
2023-05-15T08:47:16.754Z,24.70
2023-05-15T08:49:57.280Z,24.84
2023-05-15T08:52:26.559Z,24.75
2023-05-15T08:54:55.037Z,24.42
2023-05-15T08:57:23.701Z,24.52
2023-05-15T08:59:52.368Z,24.71
2023-05-15T09:02:21.891Z,24.71
2023-05-15T09:04:51.457Z,24.63
2023-05-15T09:07:19.513Z,24.51
2023-05-15T09:09:48.367Z,24.68
2023-05-15T09:12:17.173Z,24.02
2023-05-15T09:14:45.192Z,24.06
2023-05-15T09:17:13.146Z,23.68
2023-05-15T09:19:41.149Z,24.06
2023-05-15T09:22:23.513Z,24.22
2023-05-15T09:24:52.997Z,24.09
2023-05-15T09:27:21.460Z,23.78
2023-05-15T09:29:51.313Z,23.98
2023-05-15T09:32:19.879Z,24.04
2023-05-15T09:34:47.588Z,24.28
2023-05-15T09:37:29.922Z,24.24
2023-05-15T09:40:09.116Z,24.29
2023-05-15T09:42:36.814Z,24.38
2023-05-15T09:45:04.958Z,24.30
2023-05-15T09:47:32.979Z,24.41
2023-05-15T09:50:00.830Z,24.62
2023-05-15T09:52:30.585Z,24.66
2023-05-15T09:54:58.468Z,24.57
2023-05-15T09:57:26.161Z,24.58
2023-05-15T09:59:53.728Z,24.50
2023-05-15T10:02:28.079Z,24.47
2023-05-15T10:04:57.145Z,24.58
2023-05-15T10:07:33.691Z,24.56
2023-05-15T10:10:02.523Z,24.69
2023-05-15T10:12:32.432Z,24.44
2023-05-15T10:15:01.232Z,24.22
2023-05-15T10:17:30.161Z,24.41
2023-05-15T10:20:00.635Z,24.22
2023-05-15T10:22:33.291Z,24.29
2023-05-15T10:25:04.670Z,24.44
2023-05-15T10:27:35.883Z,24.44
2023-05-15T10:30:04.721Z,24.25
2023-05-15T10:32:34.092Z,24.33
2023-05-15T10:35:02.324Z,24.38
2023-05-15T10:37:32.378Z,24.67
2023-05-15T10:40:01.872Z,24.96
2023-05-15T10:42:30.446Z,24.69
2023-05-15T10:45:02.626Z,24.79
2023-05-15T10:47:31.560Z,24.92
2023-05-15T10:49:59.974Z,24.93
2023-05-15T10:52:27.710Z,24.84
2023-05-15T10:54:56.949Z,24.69
2023-05-15T10:57:24.762Z,24.99
2023-05-15T10:59:52.592Z,25.06
2023-05-15T11:02:21.737Z,25.13
2023-05-15T11:04:49.470Z,25.09
2023-05-15T11:07:18.206Z,25.05
2023-05-15T11:09:46.146Z,25.13
2023-05-15T11:12:15.294Z,24.96
2023-05-15T11:14:45.177Z,24.96
2023-05-15T11:17:15.220Z,25.06
2023-05-15T11:20:01.316Z,25.26
2023-05-15T11:22:32.515Z,25.45
2023-05-15T11:25:01.875Z,25.14
2023-05-15T11:27:33.567Z,25.30
2023-05-15T11:30:08.169Z,25.29
2023-05-15T11:32:55.308Z,25.20
2023-05-15T11:35:25.171Z,25.14
2023-05-15T11:37:54.411Z,25.02
2023-05-15T11:40:24.803Z,24.75
2023-05-15T11:43:05.509Z,24.54
2023-05-15T11:45:34.641Z,24.78
2023-05-15T11:48:04.153Z,24.73
2023-05-15T11:50:33.647Z,24.38
2023-05-15T11:53:04.202Z,24.61
2023-05-15T11:55:33.327Z,24.69
2023-05-15T11:58:01.265Z,24.84
2023-05-15T12:00:30.295Z,25.03
2023-05-15T12:02:58.179Z,25.18
2023-05-15T12:05:25.928Z,25.42
2023-05-15T12:07:53.653Z,25.40
2023-05-15T12:10:21.547Z,25.67
2023-05-15T12:12:50.401Z,25.75
2023-05-15T12:15:18.613Z,25.94
2023-05-15T12:17:47.880Z,25.69
2023-05-15T12:20:18.394Z,25.70
2023-05-15T12:22:46.584Z,25.64
2023-05-15T12:25:16.649Z,25.56
2023-05-15T12:27:44.669Z,25.61
2023-05-15T12:30:14.812Z,25.72
2023-05-15T12:32:43.091Z,25.88
2023-05-15T12:35:12.949Z,25.31
2023-05-15T12:37:43.256Z,24.74
2023-05-15T12:40:12.044Z,24.66
2023-05-15T12:42:41.745Z,24.57
2023-05-15T12:45:18.486Z,24.38
2023-05-15T12:47:48.807Z,24.01
2023-05-15T12:50:19.730Z,23.67
2023-05-15T12:52:48.744Z,23.74
2023-05-15T12:55:17.521Z,23.42
2023-05-15T12:57:46.079Z,23.08
2023-05-15T13:00:15.308Z,22.90
2023-05-15T13:02:45.043Z,22.86
2023-05-15T13:05:13.345Z,22.64
2023-05-15T13:07:44.753Z,22.09
2023-05-15T13:10:13.554Z,21.71
2023-05-15T13:12:44.908Z,21.52
2023-05-15T13:15:24.327Z,21.13
2023-05-15T13:17:56.411Z,20.92
2023-05-15T13:20:25.108Z,20.73
2023-05-15T13:22:54.470Z,20.35
2023-05-15T13:25:22.597Z,20.04
2023-05-15T13:27:50.738Z,19.53
2023-05-15T13:30:19.429Z,18.96
2023-05-15T13:32:48.074Z,18.66
2023-05-15T13:35:16.557Z,18.30
2023-05-15T13:37:44.319Z,18.01
2023-05-15T13:40:14.519Z,17.84
2023-05-15T13:42:44.091Z,17.72
2023-05-15T13:45:13.727Z,17.56
2023-05-15T13:47:41.758Z,17.38
2023-05-15T13:50:11.556Z,17.22
2023-05-15T13:52:40.308Z,17.10
2023-05-15T13:55:09.758Z,17.08
2023-05-15T13:57:39.695Z,17.06
2023-05-15T14:00:10.690Z,17.08
2023-05-15T14:02:38.383Z,16.99
2023-05-15T14:05:07.341Z,16.92
2023-05-15T14:07:35.407Z,16.83
2023-05-15T14:10:03.745Z,16.76
2023-05-15T14:12:32.438Z,16.74
2023-05-15T14:15:02.664Z,16.77
2023-05-15T14:17:30.565Z,16.75
2023-05-15T14:19:58.599Z,16.76
2023-05-15T14:22:26.601Z,16.76
2023-05-15T14:24:54.598Z,16.83
2023-05-15T14:27:22.676Z,16.88
2023-05-15T14:29:51.795Z,16.79
2023-05-15T14:32:21.211Z,16.81
2023-05-15T14:34:49.075Z,16.94
2023-05-15T14:37:17.035Z,17.03
2023-05-15T14:39:45.146Z,17.12
2023-05-15T14:42:13.020Z,17.19
2023-05-15T14:44:40.792Z,17.28
2023-05-15T14:47:10.317Z,17.34
2023-05-15T14:49:40.302Z,17.43
2023-05-15T14:52:09.883Z,17.59
2023-05-15T14:54:38.948Z,18.12
2023-05-15T14:57:07.629Z,18.35
2023-05-15T14:59:35.648Z,18.63
2023-05-15T15:02:03.719Z,18.74
2023-05-15T15:04:34.268Z,18.93
2023-05-15T15:07:06.240Z,19.22
2023-05-15T15:09:33.996Z,19.42
2023-05-15T15:12:02.132Z,19.72
2023-05-15T15:14:30.285Z,19.90
2023-05-15T15:16:58.115Z,20.00
2023-05-15T15:19:26.145Z,20.19
2023-05-15T15:21:54.098Z,20.45
2023-05-15T15:24:23.571Z,20.56
2023-05-15T15:26:52.147Z,20.65
2023-05-15T15:29:20.281Z,20.65
2023-05-15T15:31:48.923Z,20.53
2023-05-15T15:34:17.214Z,20.50
2023-05-15T15:36:45.515Z,20.40
2023-05-15T15:39:13.902Z,19.96
2023-05-15T15:41:43.265Z,19.44
2023-05-15T15:44:11.224Z,19.06
2023-05-15T15:46:39.380Z,18.94
2023-05-15T15:49:07.692Z,18.79
2023-05-15T15:51:37.498Z,18.35
2023-05-15T15:54:05.485Z,17.99
2023-05-15T15:56:33.656Z,17.92
2023-05-15T15:59:02.796Z,17.86
2023-05-15T16:01:30.816Z,17.65
2023-05-15T16:03:58.937Z,17.60
2023-05-15T16:06:26.981Z,17.52
2023-05-15T16:08:54.977Z,17.49
2023-05-15T16:11:24.026Z,17.42
2023-05-15T16:13:52.233Z,17.24
2023-05-15T16:16:26.497Z,17.22
2023-05-15T16:18:55.770Z,17.09
2023-05-15T16:21:24.873Z,17.14
2023-05-15T16:23:53.341Z,17.08
2023-05-15T16:26:22.782Z,16.99
2023-05-15T16:28:50.888Z,17.02
2023-05-15T16:31:18.747Z,16.92
2023-05-15T16:33:47.959Z,16.81
2023-05-15T16:36:16.039Z,16.76
2023-05-15T16:38:44.720Z,16.59
2023-05-15T16:41:12.667Z,16.59
2023-05-15T16:43:41.978Z,16.53
2023-05-15T16:46:09.820Z,16.56
2023-05-15T16:48:38.865Z,16.53
2023-05-15T16:51:08.347Z,16.61
2023-05-15T16:53:37.300Z,16.70
2023-05-15T16:56:06.771Z,16.78
2023-05-15T16:58:34.912Z,16.82
2023-05-15T17:01:02.673Z,16.70
2023-05-15T17:03:31.862Z,16.63
2023-05-15T17:06:00.052Z,16.62
2023-05-15T17:08:29.096Z,16.65
2023-05-15T17:10:56.898Z,16.49
2023-05-15T17:13:26.495Z,16.38
2023-05-15T17:15:55.283Z,16.14
2023-05-15T17:18:23.481Z,16.10
2023-05-15T17:20:51.411Z,16.09
2023-05-15T17:23:21.723Z,16.09
2023-05-15T17:25:52.103Z,16.09
2023-05-15T17:28:19.831Z,16.03
2023-05-15T17:30:47.622Z,16.02
2023-05-15T17:33:15.322Z,15.88
2023-05-15T17:35:42.977Z,15.86
2023-05-15T17:38:10.794Z,15.87
2023-05-15T17:40:38.449Z,15.86
2023-05-15T17:43:09.737Z,15.77
2023-05-15T17:45:37.431Z,15.66
2023-05-15T17:48:06.158Z,15.69
2023-05-15T17:50:37.862Z,15.73
2023-05-15T17:53:05.742Z,15.96
2023-05-15T17:55:33.396Z,16.06
2023-05-15T17:58:01.075Z,16.15
2023-05-15T18:00:30.361Z,16.17
2023-05-15T18:02:58.086Z,15.82
2023-05-15T18:05:26.119Z,15.64
2023-05-15T18:07:56.129Z,15.49
2023-05-15T18:10:23.771Z,15.29
2023-05-15T18:12:51.436Z,15.12
2023-05-15T18:15:19.230Z,15.02
2023-05-15T18:17:48.327Z,14.86
2023-05-15T18:20:15.934Z,14.68
2023-05-15T18:22:45.912Z,14.46
2023-05-15T18:25:13.616Z,14.39
2023-05-15T18:27:41.200Z,14.26
2023-05-15T18:30:09.970Z,14.20
2023-05-15T18:32:37.748Z,14.18
2023-05-15T18:35:07.763Z,14.00
2023-05-15T18:37:35.433Z,13.94
2023-05-15T18:40:03.248Z,13.90
2023-05-15T18:42:31.226Z,13.71
2023-05-15T18:44:58.795Z,13.55
2023-05-15T18:47:26.888Z,13.58
2023-05-15T18:49:54.516Z,13.55
2023-05-15T18:52:23.555Z,13.40
2023-05-15T18:54:52.418Z,13.27
2023-05-15T18:57:20.053Z,13.25
2023-05-15T18:59:48.546Z,13.11
2023-05-15T19:02:16.191Z,12.85
2023-05-15T19:04:43.833Z,12.72
2023-05-15T19:07:11.386Z,12.78
2023-05-15T19:09:40.382Z,12.66
2023-05-15T19:12:08.333Z,12.56
2023-05-15T19:14:35.952Z,12.42
2023-05-15T19:17:03.955Z,12.48
2023-05-15T19:19:31.908Z,12.39
2023-05-15T19:21:59.593Z,12.44
2023-05-15T19:24:27.250Z,12.25
2023-05-15T19:26:56.222Z,12.11
2023-05-15T19:29:23.807Z,12.02
2023-05-15T19:31:52.017Z,11.94
2023-05-15T19:34:19.617Z,11.94
2023-05-15T19:36:50.625Z,11.85
2023-05-15T19:39:18.451Z,11.72
2023-05-15T19:41:46.063Z,11.60
2023-05-15T19:44:15.024Z,11.57
2023-05-15T19:46:42.752Z,11.62
2023-05-15T19:49:11.780Z,11.47
2023-05-15T19:51:40.987Z,11.42
2023-05-15T19:54:09.785Z,11.27
2023-05-15T19:56:37.417Z,11.18
2023-05-15T19:59:05.035Z,11.11
2023-05-15T20:01:34.043Z,10.97
2023-05-15T20:04:01.729Z,10.87
2023-05-15T20:06:29.439Z,10.83
2023-05-15T20:08:57.021Z,10.72
2023-05-15T20:11:24.669Z,10.60
2023-05-15T20:13:52.637Z,10.65
2023-05-15T20:16:21.712Z,10.64
2023-05-15T20:18:55.245Z,10.57
2023-05-15T20:21:22.930Z,10.57
2023-05-15T20:23:51.119Z,10.48
2023-05-15T20:26:19.987Z,10.44
2023-05-15T20:28:47.556Z,10.37
2023-05-15T20:31:15.474Z,10.33
2023-05-15T20:33:43.140Z,10.37
2023-05-15T20:36:12.395Z,10.33
2023-05-15T20:38:40.543Z,10.30
2023-05-15T20:41:08.200Z,10.22
2023-05-15T20:43:35.782Z,10.20
2023-05-15T20:46:03.434Z,10.16
2023-05-15T20:48:31.215Z,10.11
2023-05-15T20:50:59.534Z,10.03
2023-05-15T20:53:29.040Z,10.03
2023-05-15T20:55:56.668Z,10.05
2023-05-15T20:58:24.293Z,9.90
2023-05-15T21:00:51.982Z,9.90
2023-05-15T21:03:20.150Z,9.84
2023-05-15T21:05:49.356Z,9.85
2023-05-15T21:08:16.945Z,9.83
2023-05-15T21:10:50.883Z,9.86
2023-05-15T21:13:18.467Z,9.78
2023-05-15T21:15:46.478Z,9.73
2023-05-15T21:18:14.209Z,9.79
2023-05-15T21:20:42.334Z,9.76
2023-05-15T21:23:10.026Z,9.80
2023-05-15T21:25:37.956Z,9.59
2023-05-15T21:28:07.664Z,9.67
2023-05-15T21:30:35.491Z,9.68
2023-05-15T21:33:03.162Z,9.71
2023-05-15T21:35:31.734Z,9.71
2023-05-15T21:37:59.475Z,9.65
2023-05-15T21:40:27.459Z,9.62
2023-05-15T21:42:55.266Z,9.51
2023-05-15T21:45:24.218Z,9.60
2023-05-15T21:47:52.105Z,9.63
2023-05-15T21:50:19.855Z,9.72
2023-05-15T21:52:50.193Z,9.71
2023-05-15T21:55:18.110Z,9.68
2023-05-15T21:57:45.879Z,9.61
2023-05-15T22:00:14.104Z,9.61
2023-05-15T22:02:43.247Z,9.58
2023-05-15T22:05:11.042Z,9.70
2023-05-15T22:07:38.686Z,9.64
2023-05-15T22:10:07.680Z,9.61
2023-05-15T22:12:35.766Z,9.57
2023-05-15T22:15:03.459Z,9.68
2023-05-15T22:17:31.200Z,9.68
2023-05-15T22:20:07.675Z,9.67
2023-05-15T22:22:36.805Z,9.73
2023-05-15T22:25:04.910Z,9.75
2023-05-15T22:27:33.497Z,9.77
2023-05-15T22:30:01.146Z,9.71
2023-05-15T22:32:30.798Z,9.72
2023-05-15T22:34:59.872Z,9.82
2023-05-15T22:37:27.552Z,9.79
2023-05-15T22:39:55.307Z,9.78
2023-05-15T22:42:23.969Z,9.78
2023-05-15T22:44:51.665Z,9.71
2023-05-15T22:47:20.788Z,9.78
2023-05-15T22:49:48.499Z,9.76
2023-05-15T22:52:18.633Z,9.82
2023-05-15T22:54:46.420Z,9.73
2023-05-15T22:57:14.370Z,9.81
2023-05-15T22:59:42.104Z,9.78
2023-05-15T23:02:09.770Z,9.75
2023-05-15T23:04:37.809Z,9.71
2023-05-15T23:07:05.902Z,9.69
2023-05-15T23:09:34.926Z,9.68
2023-05-15T23:12:04.354Z,9.66
2023-05-15T23:14:32.457Z,9.67
2023-05-15T23:17:01.374Z,9.69
2023-05-15T23:19:28.945Z,9.63
2023-05-15T23:21:56.776Z,9.63
2023-05-15T23:24:24.471Z,9.51
2023-05-15T23:26:53.887Z,9.56
2023-05-15T23:29:21.701Z,9.55
2023-05-15T23:31:49.395Z,9.55
2023-05-15T23:34:17.194Z,9.60
2023-05-15T23:36:44.808Z,9.68
2023-05-15T23:39:12.798Z,9.64
2023-05-15T23:41:40.722Z,9.72
2023-05-15T23:44:09.685Z,9.72
2023-05-15T23:46:38.203Z,9.83
2023-05-15T23:49:05.949Z,9.91
2023-05-15T23:51:33.596Z,9.98
2023-05-15T23:54:01.196Z,9.95
2023-05-15T23:56:28.782Z,9.96
2023-05-15T23:58:56.359Z,9.91
